createdAt,value
2017-11-30T00:00:55.753Z,3.20
2017-11-30T00:01:58.203Z,3.50
2017-11-30T00:03:00.675Z,2.90
2017-11-30T00:04:03.143Z,3.50
2017-11-30T00:05:05.600Z,3.20
2017-11-30T00:06:08.060Z,3.53
2017-11-30T00:07:10.538Z,3.50
2017-11-30T00:08:13.014Z,4.00
2017-11-30T00:09:15.473Z,3.23
2017-11-30T00:10:17.950Z,3.70
2017-11-30T00:11:20.403Z,3.27
2017-11-30T00:12:22.868Z,3.10
2017-11-30T00:13:25.354Z,3.10
2017-11-30T00:14:27.817Z,3.13
2017-11-30T00:15:30.283Z,3.67
2017-11-30T00:16:32.763Z,2.90
2017-11-30T00:17:35.225Z,3.20
2017-11-30T00:18:37.691Z,2.90
2017-11-30T00:19:40.170Z,3.07
2017-11-30T00:20:42.620Z,3.30
2017-11-30T00:21:45.085Z,2.90
2017-11-30T00:22:47.565Z,3.10
2017-11-30T00:23:50.041Z,3.37
2017-11-30T00:24:52.510Z,3.50
2017-11-30T00:25:55.003Z,3.03
2017-11-30T00:26:57.478Z,3.80
2017-11-30T00:27:59.946Z,2.90
2017-11-30T00:29:02.422Z,2.87
2017-11-30T00:30:04.916Z,3.07
2017-11-30T00:31:07.372Z,2.70
2017-11-30T00:32:09.824Z,2.77
2017-11-30T00:33:12.299Z,2.97
2017-11-30T00:34:14.757Z,2.90
2017-11-30T00:35:17.216Z,3.00
2017-11-30T00:36:19.668Z,3.03
2017-11-30T00:37:22.134Z,2.93
2017-11-30T00:38:24.588Z,3.07
2017-11-30T00:39:27.063Z,2.80
2017-11-30T00:40:29.533Z,3.20
2017-11-30T00:41:31.987Z,2.60
2017-11-30T00:42:46.391Z,2.80
2017-11-30T00:43:48.863Z,3.33
2017-11-30T00:44:51.342Z,2.97
2017-11-30T00:45:53.935Z,3.13
2017-11-30T00:46:56.404Z,3.23
2017-11-30T00:47:58.894Z,3.40
2017-11-30T00:49:01.452Z,3.03
2017-11-30T00:50:04.023Z,3.10
2017-11-30T00:51:06.485Z,3.20
2017-11-30T00:52:08.941Z,3.00
2017-11-30T00:53:11.397Z,2.80
2017-11-30T00:54:13.860Z,2.93
2017-11-30T00:55:16.319Z,2.57
2017-11-30T00:56:18.791Z,2.53
2017-11-30T00:57:21.244Z,2.63
2017-11-30T00:58:23.697Z,2.43
2017-11-30T00:59:26.152Z,2.90
2017-11-30T01:00:28.622Z,2.90
2017-11-30T01:01:31.090Z,3.03
2017-11-30T01:02:33.557Z,2.80
2017-11-30T01:03:36.013Z,2.97
2017-11-30T01:04:38.476Z,3.13
2017-11-30T01:05:40.928Z,3.00
2017-11-30T01:06:43.402Z,2.83
2017-11-30T01:07:45.860Z,3.10
2017-11-30T01:08:48.337Z,3.00
2017-11-30T01:09:50.815Z,3.03
2017-11-30T01:10:53.295Z,2.83
2017-11-30T01:11:55.765Z,2.43
2017-11-30T01:12:58.224Z,3.00
2017-11-30T01:14:00.680Z,2.60
2017-11-30T01:15:03.135Z,2.23
2017-11-30T01:16:05.594Z,3.50
2017-11-30T01:17:08.081Z,3.50
2017-11-30T01:18:10.565Z,2.90
2017-11-30T01:19:13.046Z,2.57
2017-11-30T01:20:15.504Z,2.30
2017-11-30T01:21:27.790Z,2.90
2017-11-30T01:22:30.284Z,3.00
2017-11-30T01:23:32.741Z,2.67
2017-11-30T01:24:35.201Z,2.53
2017-11-30T01:25:37.656Z,2.50
2017-11-30T01:26:40.111Z,2.70
2017-11-30T01:27:42.635Z,2.60
2017-11-30T01:28:45.093Z,2.77
2017-11-30T01:29:47.569Z,2.93
2017-11-30T01:30:50.029Z,2.40
2017-11-30T01:31:52.484Z,2.53
2017-11-30T01:32:54.975Z,2.70
2017-11-30T01:33:57.447Z,2.87
2017-11-30T01:34:59.939Z,3.00
2017-11-30T01:36:02.415Z,2.60
2017-11-30T01:37:04.872Z,2.63
2017-11-30T01:38:07.357Z,2.47
2017-11-30T01:39:09.830Z,2.50
2017-11-30T01:40:12.288Z,2.50
2017-11-30T01:41:14.756Z,2.53
2017-11-30T01:42:17.223Z,2.50
2017-11-30T01:43:19.708Z,2.43
2017-11-30T01:44:22.184Z,2.80
2017-11-30T01:45:24.659Z,2.20
2017-11-30T01:46:27.125Z,2.50
2017-11-30T01:47:29.599Z,2.80
2017-11-30T01:48:32.103Z,3.10
2017-11-30T01:49:34.579Z,2.73
2017-11-30T01:50:37.032Z,3.07
2017-11-30T01:51:39.493Z,2.63
2017-11-30T01:52:41.971Z,2.70
2017-11-30T01:53:44.467Z,2.67
2017-11-30T01:54:46.942Z,2.87
2017-11-30T01:55:49.413Z,2.50
2017-11-30T01:56:51.891Z,2.60
2017-11-30T01:57:54.362Z,2.70
2017-11-30T01:58:56.859Z,2.70
2017-11-30T01:59:59.312Z,2.77
2017-11-30T02:01:01.777Z,2.70
2017-11-30T02:02:04.236Z,2.60
2017-11-30T02:03:06.688Z,2.40
2017-11-30T02:04:09.169Z,2.60
2017-11-30T02:05:11.632Z,2.80
2017-11-30T02:06:14.109Z,2.40
2017-11-30T02:07:16.572Z,2.30
2017-11-30T02:08:19.042Z,2.60
2017-11-30T02:09:21.534Z,2.77
2017-11-30T02:10:24.006Z,2.70
2017-11-30T02:11:26.463Z,2.30
2017-11-30T02:12:28.923Z,2.63
2017-11-30T02:13:31.403Z,3.17
2017-11-30T02:14:33.901Z,2.37
2017-11-30T02:15:36.379Z,2.57
2017-11-30T02:16:38.853Z,2.43
2017-11-30T02:17:41.330Z,2.40
2017-11-30T02:18:43.815Z,2.17
2017-11-30T02:19:46.300Z,2.57
2017-11-30T02:20:48.781Z,2.43
2017-11-30T02:21:51.255Z,2.40
2017-11-30T02:22:53.732Z,2.70
2017-11-30T02:23:56.215Z,2.40
2017-11-30T02:24:58.698Z,2.53
2017-11-30T02:26:01.160Z,2.40
2017-11-30T02:27:03.628Z,2.27
2017-11-30T02:28:06.107Z,2.40
2017-11-30T02:29:08.585Z,2.70
2017-11-30T02:30:11.075Z,2.53
2017-11-30T02:31:13.547Z,2.67
2017-11-30T02:32:16.030Z,2.60
2017-11-30T02:33:18.511Z,2.20
2017-11-30T02:34:20.990Z,2.83
2017-11-30T02:35:23.499Z,2.17
2017-11-30T02:36:25.960Z,2.90
2017-11-30T02:37:28.434Z,3.33
2017-11-30T02:38:30.905Z,4.43
2017-11-30T02:39:33.383Z,3.97
2017-11-30T02:40:35.868Z,4.03
2017-11-30T02:41:38.329Z,4.23
2017-11-30T02:42:40.810Z,4.23
2017-11-30T02:43:43.283Z,4.23
2017-11-30T02:44:45.741Z,4.63
2017-11-30T02:45:48.256Z,5.40
2017-11-30T02:46:50.729Z,4.60
2017-11-30T02:47:53.196Z,4.80
2017-11-30T02:48:55.684Z,4.67
2017-11-30T02:49:58.144Z,4.03
2017-11-30T02:51:00.655Z,3.87
2017-11-30T02:52:03.116Z,4.30
2017-11-30T02:53:05.583Z,4.13
2017-11-30T02:54:08.053Z,4.27
2017-11-30T02:55:10.535Z,3.73
2017-11-30T02:56:13.027Z,4.20
2017-11-30T02:57:15.492Z,4.00
2017-11-30T02:58:17.956Z,4.47
2017-11-30T02:59:20.433Z,4.40
2017-11-30T03:00:22.920Z,4.20
2017-11-30T03:01:25.422Z,4.20
2017-11-30T03:02:27.889Z,4.40
2017-11-30T03:03:30.366Z,4.00
2017-11-30T03:04:32.834Z,3.50
2017-11-30T03:05:35.305Z,4.07
2017-11-30T03:06:37.780Z,3.97
2017-11-30T03:07:40.259Z,4.13
2017-11-30T03:08:42.739Z,3.80
2017-11-30T03:09:45.200Z,3.90
2017-11-30T03:10:47.677Z,5.23
2017-11-30T03:11:50.166Z,3.80
2017-11-30T03:12:52.641Z,3.77
2017-11-30T03:13:55.104Z,4.40
2017-11-30T03:14:57.558Z,4.00
2017-11-30T03:16:00.078Z,4.33
2017-11-30T03:17:02.566Z,4.30
2017-11-30T03:18:05.016Z,4.10
2017-11-30T03:19:07.468Z,3.87
2017-11-30T03:20:09.951Z,4.43
2017-11-30T03:21:12.426Z,3.53
2017-11-30T03:22:14.926Z,4.00
2017-11-30T03:23:17.400Z,3.60
2017-11-30T03:24:19.866Z,4.20
2017-11-30T03:25:22.345Z,4.00
2017-11-30T03:26:25.143Z,3.60
2017-11-30T03:27:27.619Z,3.63
2017-11-30T03:28:30.095Z,4.40
2017-11-30T03:29:32.560Z,4.00
2017-11-30T03:30:35.026Z,3.60
2017-11-30T03:31:37.519Z,4.63
2017-11-30T03:32:40.019Z,3.67
2017-11-30T03:33:42.498Z,3.87
2017-11-30T03:34:44.955Z,4.17
2017-11-30T03:35:47.424Z,3.50
2017-11-30T03:36:49.906Z,4.40
2017-11-30T03:37:52.444Z,3.47
2017-11-30T03:38:54.922Z,3.70
2017-11-30T03:39:57.414Z,3.93
2017-11-30T03:40:59.892Z,3.70
2017-11-30T03:42:02.376Z,3.47
2017-11-30T03:43:04.924Z,3.73
2017-11-30T03:44:07.447Z,3.97
2017-11-30T03:45:09.945Z,3.90
2017-11-30T03:46:12.434Z,3.30
2017-11-30T03:47:14.922Z,3.93
2017-11-30T03:48:17.459Z,3.60
2017-11-30T03:49:19.970Z,3.30
2017-11-30T03:50:22.475Z,3.50
2017-11-30T03:51:24.974Z,3.60
2017-11-30T03:52:27.498Z,4.50
2017-11-30T03:53:29.969Z,3.43
2017-11-30T03:54:32.439Z,3.17
2017-11-30T03:55:34.916Z,4.10
2017-11-30T03:56:37.405Z,3.57
2017-11-30T03:57:39.886Z,3.30
2017-11-30T03:58:42.362Z,3.07
2017-11-30T03:59:44.835Z,3.23
2017-11-30T04:00:47.305Z,3.63
2017-11-30T04:01:49.769Z,3.40
2017-11-30T04:02:52.255Z,3.73
2017-11-30T04:03:54.754Z,3.40
2017-11-30T04:04:57.243Z,3.77
2017-11-30T04:05:59.726Z,3.90
2017-11-30T04:07:02.199Z,3.40
2017-11-30T04:08:04.671Z,3.40
2017-11-30T04:09:07.149Z,3.73
2017-11-30T04:10:09.616Z,3.47
2017-11-30T04:11:12.080Z,3.90
2017-11-30T04:12:14.541Z,3.40
2017-11-30T04:13:17.010Z,3.50
2017-11-30T04:14:19.488Z,3.60
2017-11-30T04:15:21.962Z,3.90
2017-11-30T04:16:24.423Z,3.90
2017-11-30T04:17:26.906Z,3.57
2017-11-30T04:18:29.375Z,3.53
2017-11-30T04:19:31.864Z,3.50
2017-11-30T04:20:34.336Z,3.40
2017-11-30T04:21:36.805Z,3.40
2017-11-30T04:22:39.260Z,3.40
2017-11-30T04:23:41.731Z,3.23
2017-11-30T04:24:44.209Z,3.93
2017-11-30T04:25:46.689Z,4.10
2017-11-30T04:26:49.161Z,4.30
2017-11-30T04:27:51.620Z,3.27
2017-11-30T04:28:54.084Z,3.70
2017-11-30T04:29:56.692Z,3.70
2017-11-30T04:30:59.177Z,4.20
2017-11-30T04:32:01.649Z,3.40
2017-11-30T04:33:04.112Z,3.90
2017-11-30T04:34:06.581Z,3.93
2017-11-30T04:35:09.090Z,3.40
2017-11-30T04:36:11.566Z,3.20
2017-11-30T04:37:14.042Z,3.60
2017-11-30T04:38:16.512Z,3.60
2017-11-30T04:39:18.987Z,3.53
2017-11-30T04:40:21.471Z,3.90
2017-11-30T04:41:23.945Z,3.37
2017-11-30T04:42:26.434Z,2.87
2017-11-30T04:43:28.908Z,3.53
2017-11-30T04:44:31.391Z,3.60
2017-11-30T04:45:33.873Z,3.20
2017-11-30T04:46:36.343Z,3.20
2017-11-30T04:47:38.819Z,3.50
2017-11-30T04:48:41.297Z,3.30
2017-11-30T04:49:43.767Z,3.60
2017-11-30T04:50:46.251Z,3.77
2017-11-30T04:51:48.729Z,3.13
2017-11-30T04:52:51.191Z,3.13
2017-11-30T04:53:53.653Z,3.77
2017-11-30T04:54:56.124Z,3.58
2017-11-30T04:55:58.599Z,3.90
2017-11-30T04:57:01.131Z,3.40
2017-11-30T04:58:03.610Z,3.73
2017-11-30T04:59:06.078Z,3.30
2017-11-30T05:00:08.546Z,3.63
2017-11-30T05:01:11.043Z,3.20
2017-11-30T05:02:13.527Z,2.70
2017-11-30T05:03:15.996Z,3.42
2017-11-30T05:04:18.465Z,3.33
2017-11-30T05:05:20.936Z,3.47
2017-11-30T05:06:23.437Z,3.35
2017-11-30T05:07:25.947Z,3.43
2017-11-30T05:08:28.403Z,3.27
2017-11-30T05:09:30.883Z,3.10
2017-11-30T05:10:33.344Z,3.20
2017-11-30T05:11:35.838Z,2.90
2017-11-30T05:12:38.315Z,3.47
2017-11-30T05:13:40.800Z,3.23
2017-11-30T05:14:43.295Z,3.43
2017-11-30T05:15:45.779Z,3.63
2017-11-30T05:16:48.261Z,3.57
2017-11-30T05:17:50.734Z,3.40
2017-11-30T05:18:53.207Z,3.40
2017-11-30T05:19:55.680Z,2.60
2017-11-30T05:20:58.138Z,3.50
2017-11-30T05:22:00.632Z,3.10
2017-11-30T05:23:03.107Z,3.00
2017-11-30T05:24:05.565Z,3.30
2017-11-30T05:25:08.029Z,3.47
2017-11-30T05:26:10.492Z,3.40
2017-11-30T05:27:13.003Z,2.87
2017-11-30T05:28:15.481Z,3.47
2017-11-30T05:29:17.954Z,3.43
2017-11-30T05:30:20.413Z,2.90
2017-11-30T05:31:22.881Z,3.13
2017-11-30T05:32:25.382Z,3.00
2017-11-30T05:33:27.851Z,3.10
2017-11-30T05:34:30.309Z,3.70
2017-11-30T05:35:32.819Z,2.93
2017-11-30T05:36:35.290Z,3.10
2017-11-30T05:37:37.770Z,3.00
2017-11-30T05:38:40.242Z,2.87
2017-11-30T05:39:42.730Z,3.13
2017-11-30T05:40:45.199Z,3.30
2017-11-30T05:41:47.660Z,3.07
2017-11-30T05:42:50.140Z,3.17
2017-11-30T05:43:52.605Z,3.57
2017-11-30T05:44:55.080Z,3.07
2017-11-30T05:45:57.542Z,3.10
2017-11-30T05:47:00.049Z,2.90
2017-11-30T05:48:02.548Z,3.00
2017-11-30T05:49:05.020Z,3.00
2017-11-30T05:50:07.485Z,2.97
2017-11-30T05:51:09.948Z,3.40
2017-11-30T05:52:12.428Z,3.37
2017-11-30T05:53:14.913Z,2.70
2017-11-30T05:54:17.386Z,2.93
2017-11-30T05:55:19.844Z,3.00
2017-11-30T05:56:22.318Z,3.37
2017-11-30T05:57:24.801Z,2.90
2017-11-30T05:58:27.285Z,2.80
2017-11-30T05:59:29.758Z,3.10
2017-11-30T06:00:32.237Z,3.00
2017-11-30T06:01:34.701Z,2.70
2017-11-30T06:02:37.161Z,3.30
2017-11-30T06:03:39.711Z,2.97
2017-11-30T06:04:42.174Z,3.00
2017-11-30T06:05:44.649Z,2.87
2017-11-30T06:06:47.138Z,3.30
2017-11-30T06:07:49.714Z,3.00
2017-11-30T06:08:52.203Z,3.10
2017-11-30T06:09:54.693Z,3.17
2017-11-30T06:10:57.156Z,2.70
2017-11-30T06:11:59.638Z,2.90
2017-11-30T06:13:02.127Z,3.65
2017-11-30T06:14:04.601Z,2.70
2017-11-30T06:15:07.099Z,3.10
2017-11-30T06:16:09.636Z,3.58
2017-11-30T06:17:12.243Z,2.77
2017-11-30T06:18:14.715Z,3.10
2017-11-30T06:19:17.177Z,2.97
2017-11-30T06:20:19.645Z,3.35
2017-11-30T06:21:22.121Z,3.10
2017-11-30T06:22:24.653Z,2.87
2017-11-30T06:23:27.151Z,3.28
2017-11-30T06:24:29.645Z,2.97
2017-11-30T06:25:32.095Z,2.67
2017-11-30T06:26:34.548Z,3.10
2017-11-30T06:27:37.004Z,2.90
2017-11-30T06:28:39.463Z,3.10
2017-11-30T06:29:41.953Z,2.50
2017-11-30T06:30:44.436Z,3.23
2017-11-30T06:31:46.899Z,3.10
2017-11-30T06:32:49.357Z,3.07
2017-11-30T06:33:51.834Z,3.63
2017-11-30T06:34:54.316Z,2.80
2017-11-30T06:35:56.772Z,2.93
2017-11-30T06:36:59.236Z,3.70
2017-11-30T06:38:01.719Z,3.35
2017-11-30T06:39:04.193Z,3.20
2017-11-30T06:40:06.696Z,3.00
2017-11-30T06:41:09.160Z,3.30
2017-11-30T06:42:11.636Z,3.10
2017-11-30T06:43:14.100Z,2.80
2017-11-30T06:44:16.556Z,3.33
2017-11-30T06:45:19.055Z,3.27
2017-11-30T06:46:21.552Z,3.30
2017-11-30T06:47:24.016Z,3.07
2017-11-30T06:48:26.474Z,3.00
2017-11-30T06:49:28.957Z,3.00
2017-11-30T06:50:31.442Z,2.73
2017-11-30T06:51:33.906Z,3.10
2017-11-30T06:52:36.398Z,3.30
2017-11-30T06:53:38.878Z,2.70
2017-11-30T06:54:41.328Z,2.77
2017-11-30T06:55:43.822Z,2.90
2017-11-30T06:56:46.295Z,3.20
2017-11-30T06:57:48.779Z,3.75
2017-11-30T06:58:51.249Z,2.72
2017-11-30T06:59:53.741Z,3.50
2017-11-30T07:00:56.239Z,3.92
2017-11-30T07:01:58.722Z,2.87
2017-11-30T07:03:01.191Z,3.30
2017-11-30T07:04:03.706Z,2.80
2017-11-30T07:05:06.194Z,2.90
2017-11-30T07:06:08.706Z,3.25
2017-11-30T07:07:11.164Z,3.27
2017-11-30T07:08:13.635Z,3.00
2017-11-30T07:09:16.117Z,3.20
2017-11-30T07:10:18.602Z,3.00
2017-11-30T07:11:21.092Z,3.40
2017-11-30T07:12:23.576Z,3.08
2017-11-30T07:13:26.065Z,2.97
2017-11-30T07:14:28.539Z,3.30
2017-11-30T07:15:31.018Z,3.30
2017-11-30T07:16:33.507Z,2.70
2017-11-30T07:17:35.964Z,3.23
2017-11-30T07:18:38.420Z,3.63
2017-11-30T07:19:40.907Z,4.18
2017-11-30T07:20:43.392Z,2.90
2017-11-30T07:21:45.892Z,3.30
2017-11-30T07:22:48.347Z,2.93
2017-11-30T07:23:50.827Z,3.20
2017-11-30T07:24:53.310Z,3.10
2017-11-30T07:25:55.792Z,3.05
2017-11-30T07:26:58.276Z,3.30
2017-11-30T07:28:00.773Z,3.22
2017-11-30T07:29:03.230Z,3.03
2017-11-30T07:30:05.688Z,3.00
2017-11-30T07:31:08.159Z,3.37
2017-11-30T07:32:10.640Z,3.20
2017-11-30T07:33:13.099Z,3.63
2017-11-30T07:34:15.581Z,3.50
2017-11-30T07:35:18.052Z,3.40
2017-11-30T07:36:20.539Z,3.70
2017-11-30T07:37:23.047Z,10.00
2017-11-30T07:38:25.520Z,9.82
2017-11-30T07:39:27.989Z,11.33
2017-11-30T07:40:30.466Z,11.83
2017-11-30T07:41:32.959Z,13.50
2017-11-30T07:42:35.457Z,12.43
2017-11-30T07:43:37.932Z,13.63
2017-11-30T07:44:40.395Z,16.17
2017-11-30T07:45:42.884Z,15.70
2017-11-30T07:46:45.357Z,15.23
2017-11-30T07:47:47.858Z,17.03
2017-11-30T07:48:50.320Z,16.93
2017-11-30T07:49:52.802Z,15.70
2017-11-30T07:50:55.277Z,14.37
2017-11-30T07:51:57.759Z,15.97
2017-11-30T07:53:00.267Z,17.67
2017-11-30T07:54:02.751Z,16.35
2017-11-30T07:55:05.246Z,15.55
2017-11-30T07:56:07.726Z,14.87
2017-11-30T07:57:10.206Z,16.17
2017-11-30T07:58:12.706Z,16.50
2017-11-30T07:59:15.182Z,16.70
2017-11-30T08:00:17.661Z,19.07
2017-11-30T08:01:20.123Z,19.03
2017-11-30T08:02:22.599Z,18.10
2017-11-30T08:03:25.155Z,18.17
2017-11-30T08:04:27.643Z,18.43
2017-11-30T08:05:30.117Z,19.20
2017-11-30T08:06:32.605Z,17.40
2017-11-30T08:07:35.087Z,17.07
2017-11-30T08:08:37.593Z,18.70
2017-11-30T08:09:40.085Z,18.00
2017-11-30T08:10:42.581Z,17.75
2017-11-30T08:11:45.075Z,19.47
2017-11-30T08:12:47.583Z,17.83
2017-11-30T08:13:50.103Z,20.60
2017-11-30T08:14:52.634Z,19.27
2017-11-30T08:15:55.131Z,20.83
2017-11-30T08:16:57.703Z,22.40
2017-11-30T08:18:00.184Z,20.43
2017-11-30T08:19:02.696Z,22.00
2017-11-30T08:20:05.353Z,21.27
2017-11-30T08:21:07.815Z,21.37
2017-11-30T08:22:10.283Z,21.00
2017-11-30T08:23:12.756Z,19.65
2017-11-30T08:24:15.251Z,22.17
2017-11-30T08:25:17.972Z,21.27
2017-11-30T08:26:20.449Z,20.30
2017-11-30T08:27:22.930Z,20.27
2017-11-30T08:28:25.403Z,20.55
2017-11-30T08:29:27.919Z,19.55
2017-11-30T08:30:30.400Z,20.23
2017-11-30T08:31:32.898Z,18.80
2017-11-30T08:32:35.383Z,20.52
2017-11-30T08:33:37.856Z,20.90
2017-11-30T08:34:40.364Z,21.67
2017-11-30T08:35:42.854Z,20.65
2017-11-30T08:36:45.341Z,20.52
2017-11-30T08:37:47.814Z,20.50
2017-11-30T08:38:50.302Z,20.92
2017-11-30T08:39:52.815Z,20.67
2017-11-30T08:40:55.330Z,20.30
2017-11-30T08:41:57.809Z,21.05
2017-11-30T08:43:00.299Z,22.42
2017-11-30T08:44:02.782Z,22.33
2017-11-30T08:45:05.296Z,22.02
2017-11-30T08:46:07.779Z,22.05
2017-11-30T08:47:10.272Z,21.90
2017-11-30T08:48:12.778Z,20.77
2017-11-30T08:49:15.277Z,21.60
2017-11-30T08:50:17.790Z,21.58
2017-11-30T08:51:20.275Z,21.98
2017-11-30T08:52:22.755Z,20.87
2017-11-30T08:53:25.227Z,22.00
2017-11-30T08:54:27.703Z,21.35
2017-11-30T08:55:30.208Z,21.10
2017-11-30T08:56:32.698Z,21.45
2017-11-30T08:57:35.185Z,21.20
2017-11-30T08:58:37.678Z,20.73
2017-11-30T08:59:40.168Z,21.70
2017-11-30T09:00:42.683Z,21.10
2017-11-30T09:01:45.156Z,22.35
2017-11-30T09:02:47.650Z,20.67
2017-11-30T09:03:50.127Z,22.05
2017-11-30T09:04:52.652Z,21.20
2017-11-30T09:05:55.150Z,21.05
2017-11-30T09:06:57.649Z,20.02
2017-11-30T09:08:00.160Z,21.98
2017-11-30T09:09:02.639Z,19.65
2017-11-30T09:10:05.125Z,20.20
2017-11-30T09:11:07.601Z,17.23
2017-11-30T09:12:10.085Z,18.08
2017-11-30T09:13:12.582Z,17.50
2017-11-30T09:14:15.078Z,14.80
2017-11-30T09:15:17.576Z,15.48
2017-11-30T09:16:20.061Z,15.32
2017-11-30T09:17:22.567Z,13.75
2017-11-30T09:18:25.055Z,13.75
2017-11-30T09:19:27.551Z,14.55
2017-11-30T09:20:30.048Z,12.80
2017-11-30T09:21:32.526Z,13.55
2017-11-30T09:22:35.012Z,12.48
2017-11-30T09:23:37.548Z,11.73
2017-11-30T09:24:40.042Z,13.02
2017-11-30T09:25:42.538Z,12.32
2017-11-30T09:26:45.050Z,12.93
2017-11-30T09:27:47.534Z,12.20
2017-11-30T09:28:50.008Z,11.20
2017-11-30T09:29:52.547Z,12.48
2017-11-30T09:30:55.034Z,11.15
2017-11-30T09:31:57.550Z,10.35
2017-11-30T09:33:00.024Z,10.88
2017-11-30T09:34:02.513Z,10.70
2017-11-30T09:35:05.016Z,10.80
2017-11-30T09:36:07.504Z,12.32
2017-11-30T09:37:10.002Z,10.50
2017-11-30T09:38:12.484Z,10.80
2017-11-30T09:39:15.001Z,10.47
2017-11-30T09:40:17.478Z,10.63
2017-11-30T09:41:19.954Z,9.83
2017-11-30T09:42:22.429Z,9.70
2017-11-30T09:43:24.907Z,10.05
2017-11-30T09:44:27.430Z,9.70
2017-11-30T09:45:29.979Z,10.77
2017-11-30T09:46:32.450Z,9.20
2017-11-30T09:47:34.956Z,9.48
2017-11-30T09:48:37.454Z,9.13
2017-11-30T09:49:39.953Z,10.10
2017-11-30T09:50:42.436Z,9.07
2017-11-30T09:51:45.711Z,9.13
2017-11-30T09:52:48.266Z,9.18
2017-11-30T09:53:50.762Z,8.70
2017-11-30T09:54:53.258Z,9.60
2017-11-30T09:55:55.735Z,8.20
2017-11-30T09:56:58.221Z,9.07
2017-11-30T09:58:00.816Z,8.65
2017-11-30T09:59:03.372Z,8.35
2017-11-30T10:00:05.861Z,9.45
2017-11-30T10:01:08.420Z,9.38
2017-11-30T10:02:10.904Z,9.75
2017-11-30T10:03:13.372Z,10.53
2017-11-30T10:04:15.914Z,10.30
2017-11-30T10:05:18.384Z,9.85
2017-11-30T10:06:20.856Z,9.63
2017-11-30T10:07:23.397Z,10.05
2017-11-30T10:08:25.878Z,10.57
2017-11-30T10:09:28.348Z,9.57
2017-11-30T10:10:30.820Z,9.95
2017-11-30T10:11:33.310Z,10.05
2017-11-30T10:12:35.810Z,9.60
2017-11-30T10:13:38.310Z,10.60
2017-11-30T10:14:40.801Z,10.10
2017-11-30T10:15:43.291Z,9.60
2017-11-30T10:16:45.781Z,8.75
2017-11-30T10:17:48.276Z,9.68
2017-11-30T10:18:50.753Z,10.45
2017-11-30T10:19:53.262Z,8.50
2017-11-30T10:20:55.738Z,9.18
2017-11-30T10:21:58.248Z,8.10
2017-11-30T10:23:00.767Z,8.57
2017-11-30T10:24:03.478Z,7.73
2017-11-30T10:25:05.965Z,8.77
2017-11-30T10:26:08.458Z,9.68
2017-11-30T10:27:10.947Z,8.13
2017-11-30T10:28:13.416Z,8.70
2017-11-30T10:29:16.103Z,8.50
2017-11-30T10:30:18.595Z,7.95
2017-11-30T10:31:21.104Z,8.37
2017-11-30T10:32:23.620Z,8.23
2017-11-30T10:33:26.061Z,7.83
2017-11-30T10:34:28.532Z,6.78
2017-11-30T10:35:30.997Z,7.40
2017-11-30T10:36:33.489Z,7.05
2017-11-30T10:37:35.978Z,8.63
2017-11-30T10:38:38.435Z,7.67
2017-11-30T10:39:40.924Z,7.70
2017-11-30T10:40:43.472Z,7.50
2017-11-30T10:41:45.957Z,7.47
2017-11-30T10:42:48.441Z,7.72
2017-11-30T10:43:50.943Z,7.60
2017-11-30T10:44:53.432Z,6.85
2017-11-30T10:45:55.895Z,8.10
2017-11-30T10:46:58.363Z,8.10
2017-11-30T10:48:00.844Z,8.00
2017-11-30T10:49:03.334Z,7.82
2017-11-30T10:50:05.824Z,6.68
2017-11-30T10:51:08.299Z,7.35
2017-11-30T10:52:10.770Z,7.43
2017-11-30T10:53:13.244Z,6.85
2017-11-30T10:54:15.766Z,7.40
2017-11-30T10:55:18.228Z,7.10
2017-11-30T10:56:20.709Z,6.70
2017-11-30T10:57:23.179Z,6.40
2017-11-30T10:58:25.653Z,7.03
2017-11-30T10:59:28.136Z,6.82
2017-11-30T11:00:30.615Z,6.62
2017-11-30T11:01:33.094Z,6.55
2017-11-30T11:02:35.560Z,6.68
2017-11-30T11:03:38.029Z,6.18
2017-11-30T11:04:40.501Z,6.28
2017-11-30T11:05:43.010Z,7.20
2017-11-30T11:06:45.499Z,5.90
2017-11-30T11:07:48.002Z,6.30
2017-11-30T11:08:50.484Z,6.55
2017-11-30T11:09:53.001Z,6.68
2017-11-30T11:10:55.491Z,6.55
2017-11-30T11:11:57.983Z,6.43
2017-11-30T11:13:00.463Z,6.15
2017-11-30T11:14:02.943Z,6.43
2017-11-30T11:15:05.426Z,6.47
2017-11-30T11:16:07.930Z,6.60
2017-11-30T11:17:10.414Z,6.12
2017-11-30T11:18:12.897Z,6.82
2017-11-30T11:19:15.378Z,6.45
2017-11-30T11:20:17.859Z,6.57
2017-11-30T11:21:20.348Z,7.45
2017-11-30T11:22:22.836Z,6.50
2017-11-30T11:23:26.238Z,6.68
2017-11-30T11:24:28.721Z,6.18
2017-11-30T11:25:31.214Z,6.93
2017-11-30T11:26:33.697Z,6.68
2017-11-30T11:27:36.189Z,6.65
2017-11-30T11:28:38.685Z,6.47
2017-11-30T11:29:41.173Z,6.87
2017-11-30T11:30:43.644Z,6.75
2017-11-30T11:31:46.134Z,6.53
2017-11-30T11:32:48.627Z,6.93
2017-11-30T11:33:51.112Z,6.35
2017-11-30T11:34:53.588Z,6.45
2017-11-30T11:35:56.048Z,6.93
2017-11-30T11:36:58.520Z,7.55
2017-11-30T11:38:00.997Z,6.20
2017-11-30T11:39:03.471Z,6.25
2017-11-30T11:40:05.958Z,6.68
2017-11-30T11:41:08.492Z,7.30
2017-11-30T11:42:10.986Z,6.35
2017-11-30T11:43:13.470Z,6.10
2017-11-30T11:44:15.949Z,6.25
2017-11-30T11:45:18.454Z,6.37
2017-11-30T11:46:20.920Z,5.90
2017-11-30T11:47:23.388Z,6.00
2017-11-30T11:48:25.879Z,6.20
2017-11-30T11:49:28.350Z,5.90
2017-11-30T11:50:30.837Z,6.43
2017-11-30T11:51:33.312Z,6.00
2017-11-30T11:52:35.783Z,5.75
2017-11-30T11:53:38.270Z,6.18
2017-11-30T11:54:40.739Z,6.00
2017-11-30T11:55:43.216Z,6.00
2017-11-30T11:56:45.693Z,5.93
2017-11-30T11:57:48.168Z,6.22
2017-11-30T11:58:50.635Z,5.80
2017-11-30T11:59:53.104Z,6.43
2017-11-30T12:00:55.591Z,6.32
2017-11-30T12:01:58.071Z,6.87
2017-11-30T12:03:00.567Z,6.85
2017-11-30T12:04:03.043Z,6.12
2017-11-30T12:05:05.544Z,5.82
2017-11-30T12:06:08.038Z,5.47
2017-11-30T12:07:10.504Z,6.23
2017-11-30T12:08:13.007Z,5.82
2017-11-30T12:09:15.475Z,5.45
2017-11-30T12:10:17.963Z,6.25
2017-11-30T12:11:20.433Z,6.40
2017-11-30T12:12:22.914Z,6.62
2017-11-30T12:13:25.384Z,5.70
2017-11-30T12:14:27.852Z,6.68
2017-11-30T12:15:30.395Z,5.78
2017-11-30T12:16:32.871Z,7.07
2017-11-30T12:17:35.340Z,6.15
2017-11-30T12:18:37.824Z,6.40
2017-11-30T12:19:40.328Z,7.53
2017-11-30T12:20:42.820Z,7.62
2017-11-30T12:21:45.344Z,8.23
2017-11-30T12:22:47.840Z,10.82
2017-11-30T12:23:50.316Z,11.93
2017-11-30T12:24:52.808Z,11.60
2017-11-30T12:25:55.354Z,11.30
2017-11-30T12:26:57.855Z,11.05
2017-11-30T12:28:00.332Z,10.35
2017-11-30T12:29:02.818Z,9.80
2017-11-30T12:30:05.296Z,8.50
2017-11-30T12:31:07.781Z,9.15
2017-11-30T12:32:10.267Z,8.32
2017-11-30T12:33:12.757Z,7.53
2017-11-30T12:34:15.227Z,8.85
2017-11-30T12:35:17.700Z,8.05
2017-11-30T12:36:20.174Z,7.53
2017-11-30T12:37:22.656Z,7.00
2017-11-30T12:38:25.155Z,7.35
2017-11-30T12:39:27.656Z,6.70
2017-11-30T12:40:30.146Z,6.53
2017-11-30T12:41:32.631Z,6.18
2017-11-30T12:42:35.113Z,6.07
2017-11-30T12:43:37.600Z,6.97
2017-11-30T12:44:40.076Z,6.20
2017-11-30T12:45:42.610Z,6.37
2017-11-30T12:46:45.084Z,5.10
2017-11-30T12:47:47.588Z,6.18
2017-11-30T12:48:50.064Z,6.57
2017-11-30T12:49:52.556Z,6.63
2017-11-30T12:50:55.047Z,5.10
2017-11-30T12:51:57.904Z,5.30
2017-11-30T12:53:00.403Z,5.57
2017-11-30T12:54:02.892Z,5.70
2017-11-30T12:55:05.364Z,5.15
2017-11-30T12:56:07.842Z,5.43
2017-11-30T12:57:10.547Z,6.12
2017-11-30T12:58:13.620Z,5.20
2017-11-30T12:59:16.671Z,5.60
2017-11-30T13:00:19.307Z,5.30
2017-11-30T13:01:21.825Z,5.43
2017-11-30T13:02:24.319Z,5.20
2017-11-30T13:03:26.797Z,5.37
2017-11-30T13:04:29.309Z,5.53
2017-11-30T13:05:31.795Z,5.05
2017-11-30T13:06:34.274Z,6.00
2017-11-30T13:07:36.742Z,4.70
2017-11-30T13:08:39.233Z,5.50
2017-11-30T13:09:41.714Z,5.03
2017-11-30T13:10:44.185Z,5.00
2017-11-30T13:11:46.642Z,5.07
2017-11-30T13:12:49.147Z,5.30
2017-11-30T13:13:51.625Z,5.17
2017-11-30T13:14:54.083Z,4.67
2017-11-30T13:15:56.538Z,5.10
2017-11-30T13:16:58.995Z,5.03
2017-11-30T13:18:01.501Z,4.33
2017-11-30T13:19:03.958Z,4.80
2017-11-30T13:20:06.437Z,5.10
2017-11-30T13:21:08.898Z,5.13
2017-11-30T13:22:11.369Z,4.63
2017-11-30T13:23:13.852Z,4.72
2017-11-30T13:24:16.328Z,5.60
2017-11-30T13:25:18.803Z,4.50
2017-11-30T13:26:21.267Z,4.60
2017-11-30T13:27:23.730Z,5.13
2017-11-30T13:28:26.187Z,4.03
2017-11-30T13:29:28.651Z,4.40
2017-11-30T13:30:31.340Z,4.70
2017-11-30T13:31:34.158Z,4.10
2017-11-30T13:32:36.626Z,4.47
2017-11-30T13:33:39.599Z,3.93
2017-11-30T13:34:42.295Z,4.45
2017-11-30T13:35:44.959Z,4.57
2017-11-30T13:36:47.475Z,4.45
2017-11-30T13:37:49.929Z,3.83
2017-11-30T13:38:52.523Z,4.60
2017-11-30T13:39:55.179Z,3.78
2017-11-30T13:40:57.864Z,3.70
2017-11-30T13:42:00.400Z,4.67
2017-11-30T13:43:03.122Z,3.80
2017-11-30T13:44:05.747Z,4.57
2017-11-30T13:45:08.212Z,3.67
2017-11-30T13:46:10.687Z,3.67
2017-11-30T13:47:13.553Z,3.80